sensor_id;sensor_type;location;lat;lon;timestamp;P1;durP1;ratioP1;P2;durP2;ratioP2
39822;SDS011;25499;53.958;10.970;2023-07-29T05:37:03;10.18;;;7.88;;
39822;SDS011;25499;53.958;10.970;2023-07-29T05:39:31;9.80;;;8.18;;
39822;SDS011;25499;53.958;10.970;2023-07-29T05:41:58;11.13;;;8.32;;
39822;SDS011;25499;53.958;10.970;2023-07-29T05:44:27;9.60;;;7.80;;
39822;SDS011;25499;53.958;10.970;2023-07-29T05:46:55;9.38;;;8.23;;
39822;SDS011;25499;53.958;10.970;2023-07-29T05:49:22;9.50;;;8.18;;
39822;SDS011;25499;53.958;10.970;2023-07-29T05:51:49;12.15;;;9.77;;
39822;SDS011;25499;53.958;10.970;2023-07-29T05:54:19;11.75;;;9.70;;
39822;SDS011;25499;53.958;10.970;2023-07-29T05:56:46;13.77;;;10.60;;
39822;SDS011;25499;53.958;10.970;2023-07-29T05:59:13;17.10;;;11.90;;
39822;SDS011;25499;53.958;10.970;2023-07-29T06:01:39;13.65;;;11.38;;
39822;SDS011;25499;53.958;10.970;2023-07-29T06:04:06;16.35;;;12.48;;
39822;SDS011;25499;53.958;10.970;2023-07-29T06:06:33;18.15;;;12.05;;
39822;SDS011;25499;53.958;10.970;2023-07-29T06:09:00;15.85;;;12.63;;
39822;SDS011;25499;53.958;10.970;2023-07-29T06:11:28;14.27;;;11.60;;
39822;SDS011;25499;53.958;10.970;2023-07-29T06:13:55;17.75;;;14.00;;
39822;SDS011;25499;53.958;10.970;2023-07-29T06:16:21;22.88;;;14.52;;
39822;SDS011;25499;53.958;10.970;2023-07-29T06:18:48;22.83;;;15.00;;
39822;SDS011;25499;53.958;10.970;2023-07-29T06:21:15;24.17;;;15.43;;
39822;SDS011;25499;53.958;10.970;2023-07-29T06:23:44;20.42;;;14.98;;
39822;SDS011;25499;53.958;10.970;2023-07-29T06:26:10;22.75;;;15.15;;
39822;SDS011;25499;53.958;10.970;2023-07-29T06:28:39;22.88;;;15.93;;
39822;SDS011;25499;53.958;10.970;2023-07-29T06:31:05;21.45;;;15.23;;
39822;SDS011;25499;53.958;10.970;2023-07-29T06:33:32;20.33;;;14.48;;
39822;SDS011;25499;53.958;10.970;2023-07-29T06:35:59;22.77;;;15.50;;
39822;SDS011;25499;53.958;10.970;2023-07-29T06:38:26;26.73;;;18.70;;
39822;SDS011;25499;53.958;10.970;2023-07-29T06:40:52;23.95;;;17.38;;
39822;SDS011;25499;53.958;10.970;2023-07-29T06:43:19;25.15;;;18.83;;
39822;SDS011;25499;53.958;10.970;2023-07-29T06:45:47;29.20;;;18.60;;
39822;SDS011;25499;53.958;10.970;2023-07-29T06:48:14;27.88;;;19.67;;
39822;SDS011;25499;53.958;10.970;2023-07-29T06:50:41;28.13;;;18.42;;
39822;SDS011;25499;53.958;10.970;2023-07-29T06:53:09;31.30;;;20.25;;
39822;SDS011;25499;53.958;10.970;2023-07-29T06:55:35;30.75;;;21.40;;
39822;SDS011;25499;53.958;10.970;2023-07-29T06:58:02;35.33;;;21.40;;
39822;SDS011;25499;53.958;10.970;2023-07-29T07:00:29;34.17;;;22.17;;
39822;SDS011;25499;53.958;10.970;2023-07-29T07:02:57;29.80;;;22.02;;
39822;SDS011;25499;53.958;10.970;2023-07-29T07:05:24;33.13;;;21.48;;
39822;SDS011;25499;53.958;10.970;2023-07-29T07:07:51;33.30;;;22.05;;
39822;SDS011;25499;53.958;10.970;2023-07-29T07:10:19;26.77;;;20.27;;
39822;SDS011;25499;53.958;10.970;2023-07-29T07:12:45;27.25;;;19.65;;
39822;SDS011;25499;53.958;10.970;2023-07-29T07:15:13;26.40;;;20.35;;
39822;SDS011;25499;53.958;10.970;2023-07-29T07:17:40;25.90;;;20.00;;
39822;SDS011;25499;53.958;10.970;2023-07-29T07:20:09;29.48;;;20.20;;
39822;SDS011;25499;53.958;10.970;2023-07-29T07:22:36;26.17;;;19.55;;
39822;SDS011;25499;53.958;10.970;2023-07-29T07:25:04;25.42;;;19.23;;
39822;SDS011;25499;53.958;10.970;2023-07-29T07:27:31;29.15;;;19.17;;
39822;SDS011;25499;53.958;10.970;2023-07-29T07:29:58;24.83;;;18.55;;
39822;SDS011;25499;53.958;10.970;2023-07-29T07:32:25;23.63;;;18.63;;
39822;SDS011;25499;53.958;10.970;2023-07-29T07:34:52;25.70;;;17.08;;
39822;SDS011;25499;53.958;10.970;2023-07-29T07:37:20;23.65;;;16.83;;
39822;SDS011;25499;53.958;10.970;2023-07-29T07:39:47;22.02;;;16.63;;
39822;SDS011;25499;53.958;10.970;2023-07-29T07:42:14;20.75;;;15.32;;
39822;SDS011;25499;53.958;10.970;2023-07-29T07:44:40;22.38;;;16.25;;
39822;SDS011;25499;53.958;10.970;2023-07-29T07:47:07;19.73;;;14.65;;
39822;SDS011;25499;53.958;10.970;2023-07-29T07:49:34;19.13;;;13.57;;
39822;SDS011;25499;53.958;10.970;2023-07-29T07:52:00;18.80;;;13.90;;
39822;SDS011;25499;53.958;10.970;2023-07-29T07:54:29;19.02;;;14.20;;
39822;SDS011;25499;53.958;10.970;2023-07-29T07:56:55;18.67;;;13.82;;
39822;SDS011;25499;53.958;10.970;2023-07-29T07:59:22;19.17;;;14.55;;
39822;SDS011;25499;53.958;10.970;2023-07-29T08:01:49;17.70;;;13.15;;
39822;SDS011;25499;53.958;10.970;2023-07-29T08:04:17;15.70;;;13.43;;
39822;SDS011;25499;53.958;10.970;2023-07-29T08:06:44;16.95;;;13.80;;
39822;SDS011;25499;53.958;10.970;2023-07-29T08:09:10;16.50;;;13.02;;
39822;SDS011;25499;53.958;10.970;2023-07-29T08:11:38;16.88;;;12.50;;
39822;SDS011;25499;53.958;10.970;2023-07-29T08:14:06;18.13;;;14.30;;
39822;SDS011;25499;53.958;10.970;2023-07-29T08:16:33;17.77;;;13.80;;
39822;SDS011;25499;53.958;10.970;2023-07-29T08:19:00;15.38;;;13.15;;
39822;SDS011;25499;53.958;10.970;2023-07-29T08:21:27;15.52;;;12.55;;
39822;SDS011;25499;53.958;10.970;2023-07-29T08:23:55;17.77;;;12.43;;
39822;SDS011;25499;53.958;10.970;2023-07-29T08:26:21;14.65;;;13.07;;
39822;SDS011;25499;53.958;10.970;2023-07-29T08:28:49;15.63;;;11.98;;
39822;SDS011;25499;53.958;10.970;2023-07-29T08:31:16;14.55;;;12.15;;
39822;SDS011;25499;53.958;10.970;2023-07-29T08:33:43;18.58;;;12.55;;
39822;SDS011;25499;53.958;10.970;2023-07-29T08:36:10;15.40;;;13.35;;
39822;SDS011;25499;53.958;10.970;2023-07-29T08:38:37;16.77;;;12.63;;
39822;SDS011;25499;53.958;10.970;2023-07-29T08:41:06;16.42;;;12.88;;
39822;SDS011;25499;53.958;10.970;2023-07-29T08:43:38;18.33;;;13.13;;
39822;SDS011;25499;53.958;10.970;2023-07-29T08:46:07;16.88;;;13.40;;
39822;SDS011;25499;53.958;10.970;2023-07-29T08:48:36;18.25;;;14.52;;
39822;SDS011;25499;53.958;10.970;2023-07-29T08:51:07;17.98;;;14.00;;
39822;SDS011;25499;53.958;10.970;2023-07-29T08:53:34;18.70;;;14.13;;
39822;SDS011;25499;53.958;10.970;2023-07-29T08:56:02;19.05;;;14.48;;
39822;SDS011;25499;53.958;10.970;2023-07-29T08:58:30;18.98;;;15.65;;
39822;SDS011;25499;53.958;10.970;2023-07-29T09:00:57;19.77;;;15.35;;
39822;SDS011;25499;53.958;10.970;2023-07-29T09:03:26;17.05;;;14.60;;
39822;SDS011;25499;53.958;10.970;2023-07-29T09:05:53;19.63;;;16.40;;
39822;SDS011;25499;53.958;10.970;2023-07-29T09:08:22;20.35;;;15.07;;
39822;SDS011;25499;53.958;10.970;2023-07-29T09:10:50;19.15;;;15.68;;
39822;SDS011;25499;53.958;10.970;2023-07-29T09:13:16;19.70;;;16.35;;
39822;SDS011;25499;53.958;10.970;2023-07-29T09:15:43;19.52;;;16.08;;
39822;SDS011;25499;53.958;10.970;2023-07-29T09:18:13;21.50;;;16.00;;
39822;SDS011;25499;53.958;10.970;2023-07-29T09:20:43;19.58;;;15.70;;
39822;SDS011;25499;53.958;10.970;2023-07-29T09:25:40;17.90;;;14.88;;
39822;SDS011;25499;53.958;10.970;2023-07-29T09:28:10;16.05;;;13.75;;
39822;SDS011;25499;53.958;10.970;2023-07-29T09:30:38;18.90;;;15.50;;
39822;SDS011;25499;53.958;10.970;2023-07-29T09:33:05;17.88;;;15.27;;
39822;SDS011;25499;53.958;10.970;2023-07-29T09:35:33;18.92;;;15.30;;
39822;SDS011;25499;53.958;10.970;2023-07-29T09:38:02;18.23;;;15.73;;
39822;SDS011;25499;53.958;10.970;2023-07-29T09:40:34;19.38;;;16.48;;
39822;SDS011;25499;53.958;10.970;2023-07-29T09:43:02;20.40;;;17.00;;
39822;SDS011;25499;53.958;10.970;2023-07-29T09:45:30;33.28;;;20.05;;
39822;SDS011;25499;53.958;10.970;2023-07-29T09:48:00;14.95;;;9.38;;
39822;SDS011;25499;53.958;10.970;2023-07-29T09:50:29;17.10;;;9.82;;
39822;SDS011;25499;53.958;10.970;2023-07-29T09:52:56;11.23;;;7.70;;
39822;SDS011;25499;53.958;10.970;2023-07-29T09:55:26;8.27;;;6.22;;
39822;SDS011;25499;53.958;10.970;2023-07-29T09:57:53;9.15;;;7.15;;
39822;SDS011;25499;53.958;10.970;2023-07-29T10:00:22;14.45;;;8.65;;
39822;SDS011;25499;53.958;10.970;2023-07-29T10:02:49;16.85;;;12.45;;
39822;SDS011;25499;53.958;10.970;2023-07-29T10:05:18;17.55;;;12.68;;
39822;SDS011;25499;53.958;10.970;2023-07-29T10:07:45;16.58;;;13.40;;
39822;SDS011;25499;53.958;10.970;2023-07-29T10:10:13;16.15;;;13.85;;
39822;SDS011;25499;53.958;10.970;2023-07-29T10:12:41;18.95;;;15.23;;
39822;SDS011;25499;53.958;10.970;2023-07-29T10:15:09;19.73;;;15.20;;
39822;SDS011;25499;53.958;10.970;2023-07-29T10:17:37;19.30;;;15.45;;
39822;SDS011;25499;53.958;10.970;2023-07-29T10:20:06;19.70;;;15.13;;
39822;SDS011;25499;53.958;10.970;2023-07-29T10:22:36;18.27;;;15.05;;
39822;SDS011;25499;53.958;10.970;2023-07-29T10:25:05;19.15;;;15.50;;
39822;SDS011;25499;53.958;10.970;2023-07-29T10:27:36;17.20;;;14.73;;
39822;SDS011;25499;53.958;10.970;2023-07-29T10:30:10;24.25;;;16.08;;
39822;SDS011;25499;53.958;10.970;2023-07-29T10:32:38;19.03;;;15.33;;
39822;SDS011;25499;53.958;10.970;2023-07-29T10:35:07;19.50;;;16.98;;
39822;SDS011;25499;53.958;10.970;2023-07-29T10:37:35;17.70;;;15.80;;
39822;SDS011;25499;53.958;10.970;2023-07-29T10:40:05;19.42;;;16.10;;
39822;SDS011;25499;53.958;10.970;2023-07-29T10:42:33;17.65;;;15.75;;
39822;SDS011;25499;53.958;10.970;2023-07-29T10:45:00;18.00;;;14.93;;
39822;SDS011;25499;53.958;10.970;2023-07-29T10:47:28;17.15;;;14.07;;
39822;SDS011;25499;53.958;10.970;2023-07-29T10:49:55;19.55;;;14.77;;
39822;SDS011;25499;53.958;10.970;2023-07-29T10:52:30;16.63;;;14.77;;
39822;SDS011;25499;53.958;10.970;2023-07-29T10:55:22;17.85;;;14.98;;
39822;SDS011;25499;53.958;10.970;2023-07-29T10:57:51;15.60;;;13.95;;
39822;SDS011;25499;53.958;10.970;2023-07-29T11:00:19;15.75;;;14.15;;
39822;SDS011;25499;53.958;10.970;2023-07-29T11:02:56;16.73;;;13.43;;
39822;SDS011;25499;53.958;10.970;2023-07-29T11:05:26;16.98;;;12.90;;
39822;SDS011;25499;53.958;10.970;2023-07-29T11:07:53;17.15;;;12.40;;
39822;SDS011;25499;53.958;10.970;2023-07-29T11:10:20;13.27;;;11.88;;
39822;SDS011;25499;53.958;10.970;2023-07-29T11:12:47;12.25;;;10.95;;
39822;SDS011;25499;53.958;10.970;2023-07-29T11:15:18;10.38;;;9.38;;
39822;SDS011;25499;53.958;10.970;2023-07-29T11:17:46;9.90;;;8.02;;
39822;SDS011;25499;53.958;10.970;2023-07-29T11:20:16;8.50;;;7.68;;
39822;SDS011;25499;53.958;10.970;2023-07-29T11:22:43;7.88;;;7.07;;
39822;SDS011;25499;53.958;10.970;2023-07-29T11:25:11;7.25;;;6.55;;
39822;SDS011;25499;53.958;10.970;2023-07-29T11:27:39;7.13;;;5.88;;
39822;SDS011;25499;53.958;10.970;2023-07-29T11:30:07;6.72;;;5.97;;
39822;SDS011;25499;53.958;10.970;2023-07-29T11:32:36;6.80;;;5.17;;
39822;SDS011;25499;53.958;10.970;2023-07-29T11:35:06;5.82;;;5.32;;
39822;SDS011;25499;53.958;10.970;2023-07-29T11:37:36;6.70;;;6.00;;
39822;SDS011;25499;53.958;10.970;2023-07-29T11:40:04;5.70;;;5.20;;
39822;SDS011;25499;53.958;10.970;2023-07-29T11:42:32;6.13;;;5.03;;
39822;SDS011;25499;53.958;10.970;2023-07-29T11:44:59;8.10;;;4.68;;
39822;SDS011;25499;53.958;10.970;2023-07-29T11:47:27;6.07;;;5.07;;
39822;SDS011;25499;53.958;10.970;2023-07-29T11:49:53;4.45;;;4.05;;
39822;SDS011;25499;53.958;10.970;2023-07-29T11:52:25;4.43;;;4.00;;
39822;SDS011;25499;53.958;10.970;2023-07-29T11:54:53;4.97;;;4.20;;
39822;SDS011;25499;53.958;10.970;2023-07-29T11:57:20;4.10;;;3.70;;
39822;SDS011;25499;53.958;10.970;2023-07-29T11:59:47;3.92;;;3.63;;
39822;SDS011;25499;53.958;10.970;2023-07-29T12:02:14;3.42;;;3.13;;
39822;SDS011;25499;53.958;10.970;2023-07-29T12:04:43;4.18;;;3.28;;
39822;SDS011;25499;53.958;10.970;2023-07-29T12:07:11;4.28;;;3.20;;
39822;SDS011;25499;53.958;10.970;2023-07-29T12:09:40;3.40;;;3.10;;
39822;SDS011;25499;53.958;10.970;2023-07-29T12:12:08;3.95;;;3.33;;
39822;SDS011;25499;53.958;10.970;2023-07-29T12:14:35;4.10;;;3.50;;
39822;SDS011;25499;53.958;10.970;2023-07-29T12:17:02;4.20;;;3.58;;
39822;SDS011;25499;53.958;10.970;2023-07-29T12:19:31;4.40;;;4.00;;
39822;SDS011;25499;53.958;10.970;2023-07-29T12:21:59;4.63;;;4.18;;
39822;SDS011;25499;53.958;10.970;2023-07-29T12:24:26;4.40;;;3.70;;
39822;SDS011;25499;53.958;10.970;2023-07-29T12:26:55;4.78;;;3.58;;
39822;SDS011;25499;53.958;10.970;2023-07-29T12:29:22;4.00;;;3.70;;
39822;SDS011;25499;53.958;10.970;2023-07-29T12:31:49;3.15;;;2.85;;
39822;SDS011;25499;53.958;10.970;2023-07-29T12:34:24;3.30;;;3.00;;
39822;SDS011;25499;53.958;10.970;2023-07-29T12:36:52;3.10;;;2.88;;
39822;SDS011;25499;53.958;10.970;2023-07-29T12:39:20;4.30;;;3.60;;
39822;SDS011;25499;53.958;10.970;2023-07-29T12:41:48;3.88;;;3.38;;
39822;SDS011;25499;53.958;10.970;2023-07-29T12:44:17;4.22;;;3.78;;
39822;SDS011;25499;53.958;10.970;2023-07-29T12:46:44;4.50;;;3.83;;
39822;SDS011;25499;53.958;10.970;2023-07-29T12:49:11;4.15;;;3.75;;
39822;SDS011;25499;53.958;10.970;2023-07-29T12:51:38;4.20;;;3.40;;
39822;SDS011;25499;53.958;10.970;2023-07-29T12:54:05;5.82;;;4.10;;
39822;SDS011;25499;53.958;10.970;2023-07-29T12:56:32;5.53;;;3.58;;
39822;SDS011;25499;53.958;10.970;2023-07-29T12:59:00;4.05;;;3.47;;
39822;SDS011;25499;53.958;10.970;2023-07-29T13:01:29;4.22;;;3.60;;
39822;SDS011;25499;53.958;10.970;2023-07-29T13:03:56;5.13;;;4.10;;
39822;SDS011;25499;53.958;10.970;2023-07-29T13:06:22;4.00;;;3.67;;
39822;SDS011;25499;53.958;10.970;2023-07-29T13:08:49;4.28;;;3.45;;
39822;SDS011;25499;53.958;10.970;2023-07-29T13:11:16;4.45;;;3.80;;
39822;SDS011;25499;53.958;10.970;2023-07-29T13:13:43;6.82;;;3.85;;
39822;SDS011;25499;53.958;10.970;2023-07-29T13:16:10;3.67;;;3.17;;
39822;SDS011;25499;53.958;10.970;2023-07-29T13:18:39;4.15;;;3.80;;
39822;SDS011;25499;53.958;10.970;2023-07-29T13:21:06;4.00;;;3.63;;
39822;SDS011;25499;53.958;10.970;2023-07-29T13:23:33;4.40;;;4.00;;
39822;SDS011;25499;53.958;10.970;2023-07-29T13:26:00;5.78;;;4.00;;
39822;SDS011;25499;53.958;10.970;2023-07-29T13:28:27;4.88;;;3.90;;
39822;SDS011;25499;53.958;10.970;2023-07-29T13:30:53;4.70;;;3.47;;
39822;SDS011;25499;53.958;10.970;2023-07-29T13:33:20;4.22;;;3.92;;
39822;SDS011;25499;53.958;10.970;2023-07-29T13:35:48;4.60;;;3.70;;
39822;SDS011;25499;53.958;10.970;2023-07-29T13:38:16;3.30;;;3.00;;
39822;SDS011;25499;53.958;10.970;2023-07-29T13:40:43;3.78;;;3.35;;
39822;SDS011;25499;53.958;10.970;2023-07-29T13:43:10;4.80;;;3.63;;
39822;SDS011;25499;53.958;10.970;2023-07-29T13:45:37;5.72;;;3.75;;
39822;SDS011;25499;53.958;10.970;2023-07-29T13:48:04;5.80;;;3.60;;
39822;SDS011;25499;53.958;10.970;2023-07-29T13:50:30;4.10;;;3.70;;
39822;SDS011;25499;53.958;10.970;2023-07-29T13:52:59;5.03;;;3.50;;
39822;SDS011;25499;53.958;10.970;2023-07-29T13:55:25;3.80;;;3.50;;
39822;SDS011;25499;53.958;10.970;2023-07-29T13:57:52;4.45;;;3.70;;
39822;SDS011;25499;53.958;10.970;2023-07-29T14:00:19;4.35;;;3.70;;
39822;SDS011;25499;53.958;10.970;2023-07-29T14:02:46;3.63;;;3.33;;
39822;SDS011;25499;53.958;10.970;2023-07-29T14:05:13;3.67;;;3.38;;
39822;SDS011;25499;53.958;10.970;2023-07-29T14:07:40;4.10;;;3.70;;
39822;SDS011;25499;53.958;10.970;2023-07-29T14:10:08;3.88;;;3.40;;
39822;SDS011;25499;53.958;10.970;2023-07-29T14:12:35;4.05;;;3.45;;
39822;SDS011;25499;53.958;10.970;2023-07-29T14:15:03;4.68;;;3.72;;
39822;SDS011;25499;53.958;10.970;2023-07-29T14:17:30;5.68;;;3.20;;
39822;SDS011;25499;53.958;10.970;2023-07-29T14:19:57;4.00;;;3.42;;
39822;SDS011;25499;53.958;10.970;2023-07-29T14:22:24;4.88;;;2.88;;
39822;SDS011;25499;53.958;10.970;2023-07-29T14:24:50;3.33;;;2.92;;
39822;SDS011;25499;53.958;10.970;2023-07-29T14:27:19;4.57;;;2.70;;
39822;SDS011;25499;53.958;10.970;2023-07-29T14:29:45;5.13;;;2.80;;
39822;SDS011;25499;53.958;10.970;2023-07-29T14:32:12;3.17;;;2.70;;
39822;SDS011;25499;53.958;10.970;2023-07-29T14:34:39;3.60;;;2.97;;
39822;SDS011;25499;53.958;10.970;2023-07-29T14:37:06;3.20;;;2.90;;
39822;SDS011;25499;53.958;10.970;2023-07-29T14:39:32;2.60;;;2.30;;
39822;SDS011;25499;53.958;10.970;2023-07-29T14:41:59;2.72;;;2.53;;
39822;SDS011;25499;53.958;10.970;2023-07-29T14:44:27;3.67;;;2.80;;
39822;SDS011;25499;53.958;10.970;2023-07-29T14:46:54;4.55;;;2.83;;
39822;SDS011;25499;53.958;10.970;2023-07-29T14:49:21;2.83;;;2.53;;
39822;SDS011;25499;53.958;10.970;2023-07-29T14:51:48;2.70;;;2.50;;
39822;SDS011;25499;53.958;10.970;2023-07-29T14:54:14;3.42;;;2.47;;
39822;SDS011;25499;53.958;10.970;2023-07-29T14:56:41;2.53;;;2.30;;
39822;SDS011;25499;53.958;10.970;2023-07-29T14:59:08;4.53;;;2.35;;
39822;SDS011;25499;53.958;10.970;2023-07-29T15:01:38;3.22;;;2.42;;
39822;SDS011;25499;53.958;10.970;2023-07-29T15:04:04;3.15;;;2.55;;
39822;SDS011;25499;53.958;10.970;2023-07-29T15:06:31;3.58;;;2.38;;
39822;SDS011;25499;53.958;10.970;2023-07-29T15:08:58;3.60;;;2.00;;
39822;SDS011;25499;53.958;10.970;2023-07-29T15:11:25;4.78;;;1.80;;
39822;SDS011;25499;53.958;10.970;2023-07-29T15:13:52;2.45;;;1.70;;
39822;SDS011;25499;53.958;10.970;2023-07-29T15:16:22;3.67;;;1.70;;
39822;SDS011;25499;53.958;10.970;2023-07-29T15:18:51;1.50;;;1.40;;
39822;SDS011;25499;53.958;10.970;2023-07-29T15:21:18;1.85;;;1.60;;
39822;SDS011;25499;53.958;10.970;2023-07-29T15:23:44;2.05;;;1.50;;
39822;SDS011;25499;53.958;10.970;2023-07-29T15:26:11;3.13;;;1.40;;
39822;SDS011;25499;53.958;10.970;2023-07-29T15:28:38;2.30;;;1.17;;
39822;SDS011;25499;53.958;10.970;2023-07-29T15:31:06;1.60;;;1.50;;
39822;SDS011;25499;53.958;10.970;2023-07-29T15:33:32;1.38;;;1.27;;
39822;SDS011;25499;53.958;10.970;2023-07-29T15:36:01;1.65;;;1.42;;
39822;SDS011;25499;53.958;10.970;2023-07-29T15:38:28;1.65;;;1.40;;
39822;SDS011;25499;53.958;10.970;2023-07-29T15:40:54;3.15;;;1.35;;
39822;SDS011;25499;53.958;10.970;2023-07-29T15:43:21;2.33;;;1.20;;
39822;SDS011;25499;53.958;10.970;2023-07-29T15:45:48;1.67;;;1.27;;
39822;SDS011;25499;53.958;10.970;2023-07-29T15:48:15;1.30;;;1.20;;
39822;SDS011;25499;53.958;10.970;2023-07-29T15:50:42;1.77;;;1.20;;
39822;SDS011;25499;53.958;10.970;2023-07-29T15:53:10;2.08;;;1.20;;
39822;SDS011;25499;53.958;10.970;2023-07-29T15:55:37;1.90;;;1.10;;
39822;SDS011;25499;53.958;10.970;2023-07-29T15:58:04;3.22;;;1.20;;
39822;SDS011;25499;53.958;10.970;2023-07-29T16:00:31;2.63;;;1.23;;
39822;SDS011;25499;53.958;10.970;2023-07-29T16:02:58;2.22;;;1.25;;
39822;SDS011;25499;53.958;10.970;2023-07-29T16:05:25;1.40;;;1.25;;
39822;SDS011;25499;53.958;10.970;2023-07-29T16:07:53;1.67;;;1.20;;
39822;SDS011;25499;53.958;10.970;2023-07-29T16:10:23;1.48;;;1.20;;
39822;SDS011;25499;53.958;10.970;2023-07-29T16:12:50;2.58;;;1.15;;
39822;SDS011;25499;53.958;10.970;2023-07-29T16:15:17;2.38;;;1.17;;
39822;SDS011;25499;53.958;10.970;2023-07-29T16:17:44;1.20;;;1.10;;
39822;SDS011;25499;53.958;10.970;2023-07-29T16:20:15;1.60;;;1.08;;
39822;SDS011;25499;53.958;10.970;2023-07-29T16:22:42;1.60;;;1.20;;
39822;SDS011;25499;53.958;10.970;2023-07-29T16:25:08;1.85;;;1.27;;
39822;SDS011;25499;53.958;10.970;2023-07-29T16:27:36;3.75;;;1.30;;
39822;SDS011;25499;53.958;10.970;2023-07-29T16:30:05;2.28;;;1.42;;
39822;SDS011;25499;53.958;10.970;2023-07-29T16:32:32;1.55;;;1.20;;
39822;SDS011;25499;53.958;10.970;2023-07-29T16:34:59;1.70;;;1.30;;
39822;SDS011;25499;53.958;10.970;2023-07-29T16:37:26;2.47;;;1.35;;
39822;SDS011;25499;53.958;10.970;2023-07-29T16:39:52;2.60;;;1.50;;
39822;SDS011;25499;53.958;10.970;2023-07-29T16:42:19;2.13;;;1.50;;
39822;SDS011;25499;53.958;10.970;2023-07-29T16:44:47;2.55;;;1.40;;
39822;SDS011;25499;53.958;10.970;2023-07-29T16:47:14;2.55;;;1.42;;
39822;SDS011;25499;53.958;10.970;2023-07-29T16:49:41;6.97;;;1.20;;
39822;SDS011;25499;53.958;10.970;2023-07-29T16:52:08;3.50;;;2.80;;
39822;SDS011;25499;53.958;10.970;2023-07-29T16:54:35;3.78;;;2.33;;
39822;SDS011;25499;53.958;10.970;2023-07-29T16:57:02;3.72;;;2.20;;
39822;SDS011;25499;53.958;10.970;2023-07-29T16:59:29;2.10;;;1.67;;
39822;SDS011;25499;53.958;10.970;2023-07-29T17:01:57;4.53;;;2.33;;
39822;SDS011;25499;53.958;10.970;2023-07-29T17:04:26;3.47;;;1.58;;
39822;SDS011;25499;53.958;10.970;2023-07-29T17:06:52;1.98;;;1.40;;
39822;SDS011;25499;53.958;10.970;2023-07-29T17:09:19;2.42;;;1.50;;
39822;SDS011;25499;53.958;10.970;2023-07-29T17:11:46;5.45;;;1.38;;
39822;SDS011;25499;53.958;10.970;2023-07-29T17:14:12;3.30;;;1.17;;
39822;SDS011;25499;53.958;10.970;2023-07-29T17:16:39;2.45;;;1.23;;
39822;SDS011;25499;53.958;10.970;2023-07-29T17:19:07;1.88;;;1.30;;
39822;SDS011;25499;53.958;10.970;2023-07-29T17:21:34;2.63;;;1.25;;
39822;SDS011;25499;53.958;10.970;2023-07-29T17:24:01;2.42;;;1.30;;
39822;SDS011;25499;53.958;10.970;2023-07-29T17:26:30;4.40;;;1.63;;
39822;SDS011;25499;53.958;10.970;2023-07-29T17:28:57;2.95;;;1.30;;
39822;SDS011;25499;53.958;10.970;2023-07-29T17:31:23;1.60;;;1.50;;
39822;SDS011;25499;53.958;10.970;2023-07-29T17:33:51;2.22;;;1.65;;
39822;SDS011;25499;53.958;10.970;2023-07-29T17:36:19;3.15;;;1.55;;
39822;SDS011;25499;53.958;10.970;2023-07-29T17:38:46;1.58;;;1.48;;
39822;SDS011;25499;53.958;10.970;2023-07-29T17:41:12;3.15;;;1.23;;
39822;SDS011;25499;53.958;10.970;2023-07-29T17:43:40;2.45;;;1.70;;
39822;SDS011;25499;53.958;10.970;2023-07-29T17:46:09;3.72;;;1.80;;
39822;SDS011;25499;53.958;10.970;2023-07-29T17:48:38;3.25;;;1.63;;
39822;SDS011;25499;53.958;10.970;2023-07-29T17:51:05;2.33;;;1.58;;
39822;SDS011;25499;53.958;10.970;2023-07-29T17:53:34;1.73;;;1.63;;
39822;SDS011;25499;53.958;10.970;2023-07-29T17:56:01;3.40;;;1.85;;
39822;SDS011;25499;53.958;10.970;2023-07-29T17:58:28;2.40;;;1.58;;
39822;SDS011;25499;53.958;10.970;2023-07-29T18:00:55;3.35;;;1.65;;
39822;SDS011;25499;53.958;10.970;2023-07-29T18:03:23;2.15;;;1.67;;
39822;SDS011;25499;53.958;10.970;2023-07-29T18:05:50;2.47;;;1.70;;
39822;SDS011;25499;53.958;10.970;2023-07-29T18:08:17;3.30;;;2.00;;
39822;SDS011;25499;53.958;10.970;2023-07-29T18:10:45;1.90;;;1.70;;
39822;SDS011;25499;53.958;10.970;2023-07-29T18:13:12;4.30;;;1.90;;
39822;SDS011;25499;53.958;10.970;2023-07-29T18:15:39;3.38;;;1.83;;
39822;SDS011;25499;53.958;10.970;2023-07-29T18:18:06;2.10;;;1.90;;
39822;SDS011;25499;53.958;10.970;2023-07-29T18:20:32;4.32;;;2.10;;
39822;SDS011;25499;53.958;10.970;2023-07-29T18:23:00;2.10;;;1.85;;
39822;SDS011;25499;53.958;10.970;2023-07-29T18:25:30;5.63;;;2.05;;
39822;SDS011;25499;53.958;10.970;2023-07-29T18:27:58;2.63;;;1.90;;
39822;SDS011;25499;53.958;10.970;2023-07-29T18:30:25;2.95;;;2.25;;
39822;SDS011;25499;53.958;10.970;2023-07-29T18:32:52;3.08;;;1.75;;
39822;SDS011;25499;53.958;10.970;2023-07-29T18:35:19;2.55;;;1.85;;
39822;SDS011;25499;53.958;10.970;2023-07-29T18:37:46;2.28;;;1.60;;
39822;SDS011;25499;53.958;10.970;2023-07-29T18:40:17;4.57;;;1.98;;
39822;SDS011;25499;53.958;10.970;2023-07-29T18:42:43;4.15;;;2.08;;
39822;SDS011;25499;53.958;10.970;2023-07-29T18:45:12;4.55;;;2.10;;
39822;SDS011;25499;53.958;10.970;2023-07-29T18:47:38;2.53;;;1.70;;
39822;SDS011;25499;53.958;10.970;2023-07-29T18:50:06;10.45;;;2.20;;
39822;SDS011;25499;53.958;10.970;2023-07-29T18:52:33;3.95;;;1.85;;
39822;SDS011;25499;53.958;10.970;2023-07-29T18:55:00;7.20;;;1.85;;
39822;SDS011;25499;53.958;10.970;2023-07-29T18:57:27;4.05;;;1.85;;
39822;SDS011;25499;53.958;10.970;2023-07-29T18:59:54;2.30;;;1.83;;
39822;SDS011;25499;53.958;10.970;2023-07-29T19:02:23;3.63;;;1.88;;
39822;SDS011;25499;53.958;10.970;2023-07-29T19:04:50;3.22;;;1.90;;
39822;SDS011;25499;53.958;10.970;2023-07-29T19:07:16;4.57;;;1.60;;
39822;SDS011;25499;53.958;10.970;2023-07-29T19:09:44;7.57;;;1.33;;
39822;SDS011;25499;53.958;10.970;2023-07-29T19:12:11;1.95;;;1.30;;
39822;SDS011;25499;53.958;10.970;2023-07-29T19:14:39;3.63;;;1.45;;
39822;SDS011;25499;53.958;10.970;2023-07-29T19:17:06;3.15;;;1.38;;
39822;SDS011;25499;53.958;10.970;2023-07-29T19:19:34;4.18;;;1.58;;
39822;SDS011;25499;53.958;10.970;2023-07-29T19:22:01;3.70;;;1.50;;
39822;SDS011;25499;53.958;10.970;2023-07-29T19:24:27;5.03;;;1.77;;
39822;SDS011;25499;53.958;10.970;2023-07-29T19:26:54;3.83;;;1.63;;
39822;SDS011;25499;53.958;10.970;2023-07-29T19:29:22;5.68;;;1.50;;
39822;SDS011;25499;53.958;10.970;2023-07-29T19:31:49;4.20;;;1.73;;
39822;SDS011;25499;53.958;10.970;2023-07-29T19:34:15;2.75;;;1.33;;
39822;SDS011;25499;53.958;10.970;2023-07-29T19:36:44;2.03;;;1.33;;
39822;SDS011;25499;53.958;10.970;2023-07-29T19:39:11;4.00;;;1.83;;
39822;SDS011;25499;53.958;10.970;2023-07-29T19:41:37;3.55;;;1.67;;
39822;SDS011;25499;53.958;10.970;2023-07-29T19:44:04;3.08;;;1.63;;
39822;SDS011;25499;53.958;10.970;2023-07-29T19:46:31;2.85;;;1.60;;
39822;SDS011;25499;53.958;10.970;2023-07-29T19:48:58;3.72;;;1.77;;
39822;SDS011;25499;53.958;10.970;2023-07-29T19:51:25;5.70;;;2.00;;
